AAL2375 KPHX-KSAT
Flight info
| Callsign | AAL2375 |
|---|---|
| Flight time | 1h 49m |
| Altitude | 37000 |
| Route | ECLPS1 PHASE ELP FST MOPPP DNKIN1 |
| Aircraft | A20N/M-SDE2E3FGHIRWXY/LB1 |
Departure
| Time | 2026-05-07 18:18 |
|---|---|
| Airport | Phoenix Sky Harbor International Airport (KPHX) |
Arrival
| Time | 2026-05-07 20:07 |
|---|---|
| Airport | San Antonio International Airport (KSAT) |
| Time | Latitude | Longitude | Altitude | Speed | Heading |
|---|---|---|---|---|---|
| 2026-05-07 17:27 | 33.43752 | -111.99980 | 1134 ft | 0 kts | 90° |
| 2026-05-07 18:01 | 33.43752 | -111.99997 | 1138 ft | 4 kts | 78° |
| 2026-05-07 18:01 | 33.43743 | -112.00021 | 1135 ft | 4 kts | 40° |
| 2026-05-07 18:01 | 33.43724 | -112.00032 | 1138 ft | 2 kts | 0° |
| 2026-05-07 18:01 | 33.43718 | -112.00032 | 1138 ft | 0 kts | 0° |
| 2026-05-07 18:06 | 33.43720 | -112.00032 | 1138 ft | 2 kts | 0° |
| 2026-05-07 18:06 | 33.43742 | -112.00032 | 1138 ft | 3 kts | 0° |
| 2026-05-07 18:07 | 33.43775 | -112.00032 | 1137 ft | 6 kts | 0° |
| 2026-05-07 18:07 | 33.43819 | -112.00032 | 1138 ft | 9 kts | 0° |
| 2026-05-07 18:07 | 33.43879 | -112.00034 | 1136 ft | 8 kts | 348° |
| 2026-05-07 18:07 | 33.43904 | -112.00069 | 1137 ft | 4 kts | 277° |
| 2026-05-07 18:08 | 33.43905 | -112.00141 | 1134 ft | 11 kts | 270° |
| 2026-05-07 18:08 | 33.43905 | -112.00249 | 1134 ft | 13 kts | 270° |
| 2026-05-07 18:08 | 33.43900 | -112.00358 | 1134 ft | 13 kts | 248° |
| 2026-05-07 18:08 | 33.43827 | -112.00382 | 1136 ft | 11 kts | 179° |
| 2026-05-07 18:09 | 33.43741 | -112.00382 | 1136 ft | 14 kts | 180° |
| 2026-05-07 18:09 | 33.43644 | -112.00382 | 1136 ft | 14 kts | 180° |
| 2026-05-07 18:09 | 33.43548 | -112.00382 | 1136 ft | 13 kts | 179° |
| 2026-05-07 18:09 | 33.43456 | -112.00382 | 1136 ft | 13 kts | 180° |
| 2026-05-07 18:10 | 33.43367 | -112.00383 | 1137 ft | 13 kts | 180° |
| 2026-05-07 18:10 | 33.43281 | -112.00383 | 1136 ft | 12 kts | 180° |
| 2026-05-07 18:10 | 33.43219 | -112.00411 | 1138 ft | 9 kts | 242° |
| 2026-05-07 18:10 | 33.43214 | -112.00486 | 1138 ft | 12 kts | 270° |
| 2026-05-07 18:11 | 33.43215 | -112.00618 | 1138 ft | 17 kts | 270° |
| 2026-05-07 18:11 | 33.43214 | -112.00714 | 1137 ft | 17 kts | 270° |
| 2026-05-07 18:11 | 33.43215 | -112.00907 | 1137 ft | 18 kts | 270° |
| 2026-05-07 18:11 | 33.43215 | -112.01053 | 1135 ft | 17 kts | 270° |
| 2026-05-07 18:12 | 33.43215 | -112.01197 | 1133 ft | 17 kts | 270° |
| 2026-05-07 18:12 | 33.43215 | -112.01340 | 1136 ft | 17 kts | 270° |
| 2026-05-07 18:12 | 33.43215 | -112.01484 | 1136 ft | 17 kts | 270° |
| 2026-05-07 18:12 | 33.43215 | -112.01623 | 1134 ft | 16 kts | 270° |
| 2026-05-07 18:13 | 33.43216 | -112.01758 | 1135 ft | 16 kts | 270° |
| 2026-05-07 18:13 | 33.43216 | -112.01890 | 1132 ft | 16 kts | 270° |
| 2026-05-07 18:13 | 33.43216 | -112.02030 | 1136 ft | 17 kts | 270° |
| 2026-05-07 18:13 | 33.43216 | -112.02171 | 1137 ft | 17 kts | 270° |
| 2026-05-07 18:14 | 33.43216 | -112.02310 | 1134 ft | 17 kts | 270° |
| 2026-05-07 18:14 | 33.43216 | -112.02449 | 1134 ft | 17 kts | 270° |
| 2026-05-07 18:14 | 33.43216 | -112.02585 | 1136 ft | 15 kts | 270° |
| 2026-05-07 18:14 | 33.43215 | -112.02678 | 1135 ft | 8 kts | 258° |
| 2026-05-07 18:15 | 33.43207 | -112.02693 | 1133 ft | 0 kts | 218° |
| 2026-05-07 18:16 | 33.43186 | -112.02702 | 1133 ft | 8 kts | 189° |
| 2026-05-07 18:16 | 33.43120 | -112.02695 | 1124 ft | 10 kts | 148° |
| 2026-05-07 18:16 | 33.43106 | -112.02627 | 1130 ft | 8 kts | 88° |
| 2026-05-07 18:16 | 33.43106 | -112.02621 | 1129 ft | 0 kts | 88° |
| 2026-05-07 18:17 | 33.43106 | -112.02411 | 1129 ft | 58 kts | 91° |
| 2026-05-07 18:17 | 33.43105 | -112.01687 | 1131 ft | 114 kts | 90° |
| 2026-05-07 18:17 | 33.43104 | -112.00538 | 1136 ft | 160 kts | 90° |
| 2026-05-07 18:17 | 33.43119 | -111.99122 | 1377 ft | 170 kts | 91° |
| 2026-05-07 18:18 | 33.43169 | -111.97695 | 1824 ft | 173 kts | 86° |
| 2026-05-07 18:18 | 33.43261 | -111.96273 | 2344 ft | 170 kts | 86° |
| 2026-05-07 18:18 | 33.43342 | -111.94852 | 3028 ft | 178 kts | 86° |
| 2026-05-07 18:18 | 33.43421 | -111.93260 | 3302 ft | 208 kts | 86° |
| 2026-05-07 18:19 | 33.43499 | -111.91379 | 3531 ft | 242 kts | 87° |
| 2026-05-07 18:19 | 33.43559 | -111.89293 | 4024 ft | 257 kts | 90° |
| 2026-05-07 18:19 | 33.43249 | -111.87171 | 4845 ft | 262 kts | 110° |
| 2026-05-07 18:19 | 33.42259 | -111.85321 | 5676 ft | 269 kts | 129° |
| 2026-05-07 18:20 | 33.40928 | -111.83697 | 6433 ft | 276 kts | 134° |
| 2026-05-07 18:20 | 33.39522 | -111.82110 | 7181 ft | 280 kts | 135° |
| 2026-05-07 18:20 | 33.38091 | -111.80502 | 7979 ft | 284 kts | 135° |
| 2026-05-07 18:20 | 33.36647 | -111.78865 | 8837 ft | 287 kts | 135° |
| 2026-05-07 18:21 | 33.35199 | -111.77215 | 9758 ft | 288 kts | 135° |
| 2026-05-07 18:21 | 33.33732 | -111.75538 | 10471 ft | 299 kts | 135° |
| 2026-05-07 18:21 | 33.32171 | -111.73747 | 10833 ft | 322 kts | 135° |
| 2026-05-07 18:21 | 33.30521 | -111.71853 | 11407 ft | 334 kts | 134° |
| 2026-05-07 18:22 | 33.28829 | -111.69915 | 12206 ft | 340 kts | 134° |
| 2026-05-07 18:22 | 33.27699 | -111.68619 | 12793 ft | 341 kts | 135° |
| 2026-05-07 18:22 | 33.25392 | -111.65977 | 13926 ft | 346 kts | 134° |
| 2026-05-07 18:22 | 33.23646 | -111.63978 | 14670 ft | 350 kts | 134° |
| 2026-05-07 18:23 | 33.21881 | -111.61958 | 15422 ft | 353 kts | 134° |
| 2026-05-07 18:23 | 33.20099 | -111.59920 | 16182 ft | 356 kts | 134° |
| 2026-05-07 18:23 | 33.18305 | -111.57869 | 16936 ft | 359 kts | 133° |
| 2026-05-07 18:23 | 33.16519 | -111.55828 | 17611 ft | 362 kts | 133° |
| 2026-05-07 18:24 | 33.14689 | -111.53738 | 18339 ft | 366 kts | 133° |
| 2026-05-07 18:24 | 33.12819 | -111.51605 | 18978 ft | 369 kts | 133° |
| 2026-05-07 18:24 | 33.10955 | -111.49478 | 19613 ft | 372 kts | 133° |
| 2026-05-07 18:24 | 33.09079 | -111.47340 | 20241 ft | 375 kts | 132° |
| 2026-05-07 18:25 | 33.07262 | -111.45161 | 20868 ft | 375 kts | 126° |
| 2026-05-07 18:25 | 33.05693 | -111.42627 | 21491 ft | 376 kts | 120° |
| 2026-05-07 18:25 | 33.04270 | -111.40049 | 22104 ft | 378 kts | 119° |
| 2026-05-07 18:25 | 33.02839 | -111.37410 | 22733 ft | 381 kts | 118° |
| 2026-05-07 18:26 | 33.01394 | -111.34749 | 23336 ft | 384 kts | 118° |
| 2026-05-07 18:26 | 32.99933 | -111.32071 | 23846 ft | 387 kts | 118° |
| 2026-05-07 18:26 | 32.98460 | -111.29377 | 24323 ft | 390 kts | 118° |
| 2026-05-07 18:26 | 32.96972 | -111.26663 | 24791 ft | 393 kts | 118° |
| 2026-05-07 18:27 | 32.95470 | -111.23928 | 25248 ft | 396 kts | 118° |
| 2026-05-07 18:27 | 32.93958 | -111.21176 | 25707 ft | 399 kts | 118° |
| 2026-05-07 18:27 | 32.92435 | -111.18409 | 26146 ft | 401 kts | 118° |
| 2026-05-07 18:27 | 32.91420 | -111.16566 | 26438 ft | 403 kts | 118° |
| 2026-05-07 18:28 | 32.89356 | -111.12819 | 26994 ft | 407 kts | 119° |
| 2026-05-07 18:28 | 32.87800 | -111.09995 | 27399 ft | 410 kts | 120° |
| 2026-05-07 18:28 | 32.86232 | -111.07156 | 27811 ft | 412 kts | 120° |
| 2026-05-07 18:28 | 32.84656 | -111.04304 | 28221 ft | 415 kts | 120° |
| 2026-05-07 18:29 | 32.83063 | -111.01423 | 28610 ft | 417 kts | 120° |
| 2026-05-07 18:29 | 32.81464 | -110.98534 | 28992 ft | 420 kts | 120° |
| 2026-05-07 18:29 | 32.79852 | -110.95622 | 29375 ft | 422 kts | 120° |
| 2026-05-07 18:29 | 32.78232 | -110.92699 | 29745 ft | 425 kts | 120° |
| 2026-05-07 18:30 | 32.76599 | -110.89754 | 30085 ft | 428 kts | 120° |
| 2026-05-07 18:30 | 32.74957 | -110.86797 | 30390 ft | 430 kts | 120° |
| 2026-05-07 18:30 | 32.73304 | -110.83820 | 30669 ft | 433 kts | 120° |
| 2026-05-07 18:30 | 32.71639 | -110.80825 | 30976 ft | 435 kts | 120° |
| 2026-05-07 18:31 | 32.69993 | -110.77866 | 31321 ft | 436 kts | 122° |
| 2026-05-07 18:31 | 32.68323 | -110.74868 | 31698 ft | 435 kts | 122° |
| 2026-05-07 18:31 | 32.66653 | -110.71872 | 32097 ft | 435 kts | 122° |
| 2026-05-07 18:31 | 32.65113 | -110.68788 | 32470 ft | 434 kts | 116° |
| 2026-05-07 18:32 | 32.63962 | -110.65488 | 32807 ft | 434 kts | 108° |
| 2026-05-07 18:32 | 32.63127 | -110.62051 | 33146 ft | 434 kts | 105° |
| 2026-05-07 18:32 | 32.62363 | -110.58578 | 33470 ft | 434 kts | 105° |
| 2026-05-07 18:32 | 32.61864 | -110.56279 | 33680 ft | 435 kts | 105° |
| 2026-05-07 18:33 | 32.60851 | -110.51639 | 34067 ft | 435 kts | 105° |
| 2026-05-07 18:33 | 32.60346 | -110.49335 | 34239 ft | 435 kts | 105° |
| 2026-05-07 18:33 | 32.59580 | -110.45859 | 34458 ft | 436 kts | 106° |
| 2026-05-07 18:33 | 32.58806 | -110.42361 | 34580 ft | 440 kts | 107° |
| 2026-05-07 18:34 | 32.58026 | -110.38845 | 34804 ft | 441 kts | 107° |
| 2026-05-07 18:34 | 32.57246 | -110.35337 | 35067 ft | 440 kts | 107° |
| 2026-05-07 18:34 | 32.56465 | -110.31829 | 35317 ft | 440 kts | 107° |
| 2026-05-07 18:34 | 32.55684 | -110.28324 | 35548 ft | 441 kts | 107° |
| 2026-05-07 18:35 | 32.54898 | -110.24806 | 35760 ft | 441 kts | 107° |
| 2026-05-07 18:35 | 32.54112 | -110.21289 | 35990 ft | 442 kts | 108° |
| 2026-05-07 18:35 | 32.53323 | -110.17764 | 36173 ft | 443 kts | 108° |
| 2026-05-07 18:35 | 32.52531 | -110.14234 | 36336 ft | 444 kts | 108° |
| 2026-05-07 18:36 | 32.51734 | -110.10688 | 36455 ft | 447 kts | 109° |
| 2026-05-07 18:36 | 32.50931 | -110.07122 | 36596 ft | 448 kts | 109° |
| 2026-05-07 18:36 | 32.50127 | -110.03553 | 36803 ft | 449 kts | 109° |
| 2026-05-07 18:36 | 32.49332 | -110.00029 | 36940 ft | 450 kts | 109° |
| 2026-05-07 18:37 | 32.48523 | -109.96450 | 36948 ft | 450 kts | 109° |
| 2026-05-07 18:37 | 32.46906 | -109.89306 | 36953 ft | 448 kts | 109° |
| 2026-05-07 18:38 | 32.45288 | -109.82177 | 36956 ft | 448 kts | 109° |
| 2026-05-07 18:38 | 32.43751 | -109.75008 | 36950 ft | 453 kts | 105° |
| 2026-05-07 18:39 | 32.42759 | -109.67612 | 36944 ft | 456 kts | 103° |
| 2026-05-07 18:39 | 32.41831 | -109.60185 | 36934 ft | 456 kts | 103° |
| 2026-05-07 18:40 | 32.40893 | -109.52764 | 36935 ft | 456 kts | 103° |
| 2026-05-07 18:40 | 32.39949 | -109.45347 | 36915 ft | 456 kts | 104° |
| 2026-05-07 18:41 | 32.38994 | -109.37911 | 36928 ft | 458 kts | 104° |
| 2026-05-07 18:41 | 32.38032 | -109.30447 | 36930 ft | 459 kts | 104° |
| 2026-05-07 18:42 | 32.37065 | -109.22977 | 36925 ft | 459 kts | 104° |
| 2026-05-07 18:42 | 32.36081 | -109.15512 | 36928 ft | 459 kts | 105° |
| 2026-05-07 18:43 | 32.34854 | -109.08128 | 36926 ft | 458 kts | 108° |
| 2026-05-07 18:43 | 32.33505 | -109.00801 | 36917 ft | 460 kts | 108° |
| 2026-05-07 18:44 | 32.32146 | -108.93398 | 36931 ft | 461 kts | 108° |
| 2026-05-07 18:44 | 32.30807 | -108.85986 | 36920 ft | 461 kts | 108° |
| 2026-05-07 18:45 | 32.29472 | -108.78573 | 36929 ft | 461 kts | 108° |
| 2026-05-07 18:45 | 32.28805 | -108.74866 | 37099 ft | 461 kts | 109° |
| 2026-05-07 18:45 | 32.28134 | -108.71158 | 37105 ft | 463 kts | 109° |
| 2026-05-07 18:46 | 32.26782 | -108.63704 | 37089 ft | 465 kts | 109° |
| 2026-05-07 18:46 | 32.25414 | -108.56199 | 37073 ft | 468 kts | 109° |
| 2026-05-07 18:47 | 32.24042 | -108.48685 | 37034 ft | 468 kts | 109° |
| 2026-05-07 18:47 | 32.22674 | -108.41213 | 36974 ft | 468 kts | 110° |
| 2026-05-07 18:48 | 32.21285 | -108.33670 | 36956 ft | 472 kts | 110° |
| 2026-05-07 18:48 | 32.19885 | -108.26089 | 36931 ft | 472 kts | 110° |
| 2026-05-07 18:49 | 32.18484 | -108.18519 | 36934 ft | 472 kts | 110° |
| 2026-05-07 18:49 | 32.17076 | -108.10945 | 36933 ft | 472 kts | 110° |
| 2026-05-07 18:50 | 32.15665 | -108.03380 | 36930 ft | 472 kts | 110° |
| 2026-05-07 18:50 | 32.14249 | -107.95816 | 36934 ft | 472 kts | 110° |
| 2026-05-07 18:51 | 32.12829 | -107.88261 | 36934 ft | 472 kts | 110° |
| 2026-05-07 18:51 | 32.11403 | -107.80700 | 37080 ft | 472 kts | 110° |
| 2026-05-07 18:52 | 32.09975 | -107.73151 | 37067 ft | 472 kts | 110° |
| 2026-05-07 18:52 | 32.08535 | -107.65570 | 37067 ft | 474 kts | 110° |
| 2026-05-07 18:53 | 32.07096 | -107.58031 | 37038 ft | 475 kts | 110° |
| 2026-05-07 18:53 | 32.05643 | -107.50426 | 36995 ft | 475 kts | 110° |
| 2026-05-07 18:54 | 32.04190 | -107.42836 | 36957 ft | 474 kts | 111° |
| 2026-05-07 18:54 | 32.02729 | -107.35246 | 36935 ft | 476 kts | 111° |
| 2026-05-07 18:55 | 32.01256 | -107.27631 | 36934 ft | 477 kts | 111° |
| 2026-05-07 18:55 | 31.99778 | -107.20001 | 36934 ft | 478 kts | 111° |
| 2026-05-07 18:56 | 31.98297 | -107.12377 | 36947 ft | 477 kts | 111° |
| 2026-05-07 18:56 | 31.96808 | -107.04743 | 36928 ft | 479 kts | 112° |
| 2026-05-07 18:57 | 31.95303 | -106.97077 | 36954 ft | 482 kts | 112° |
| 2026-05-07 18:57 | 31.93789 | -106.89370 | 36946 ft | 483 kts | 112° |
| 2026-05-07 18:57 | 31.93031 | -106.85513 | 37085 ft | 483 kts | 112° |
| 2026-05-07 18:58 | 31.92273 | -106.81666 | 37105 ft | 483 kts | 112° |
| 2026-05-07 18:58 | 31.90749 | -106.73953 | 37121 ft | 483 kts | 112° |
| 2026-05-07 18:59 | 31.89220 | -106.66247 | 37121 ft | 484 kts | 112° |
| 2026-05-07 18:59 | 31.87680 | -106.58525 | 37112 ft | 485 kts | 112° |
| 2026-05-07 19:00 | 31.86136 | -106.50797 | 37105 ft | 485 kts | 112° |
| 2026-05-07 19:00 | 31.84586 | -106.43068 | 37120 ft | 485 kts | 112° |
| 2026-05-07 19:01 | 31.83032 | -106.35339 | 37121 ft | 485 kts | 112° |
| 2026-05-07 19:01 | 31.81471 | -106.27670 | 37089 ft | 486 kts | 114° |
| 2026-05-07 19:02 | 31.79658 | -106.20015 | 37057 ft | 485 kts | 116° |
| 2026-05-07 19:02 | 31.77737 | -106.12417 | 37022 ft | 485 kts | 117° |
| 2026-05-07 19:03 | 31.75821 | -106.04819 | 36995 ft | 485 kts | 116° |
| 2026-05-07 19:03 | 31.73922 | -105.97216 | 36947 ft | 485 kts | 116° |
| 2026-05-07 19:04 | 31.72016 | -105.89581 | 36969 ft | 488 kts | 116° |
| 2026-05-07 19:04 | 31.71066 | -105.85768 | 36747 ft | 485 kts | 116° |
| 2026-05-07 19:04 | 31.70118 | -105.81969 | 36666 ft | 486 kts | 116° |
| 2026-05-07 19:05 | 31.68204 | -105.74337 | 36678 ft | 488 kts | 116° |
| 2026-05-07 19:05 | 31.67243 | -105.70515 | 36804 ft | 489 kts | 116° |
| 2026-05-07 19:05 | 31.66280 | -105.66688 | 36954 ft | 490 kts | 116° |
| 2026-05-07 19:06 | 31.64363 | -105.59074 | 36970 ft | 489 kts | 117° |
| 2026-05-07 19:06 | 31.61455 | -105.47579 | 36980 ft | 490 kts | 117° |
| 2026-05-07 19:07 | 31.59509 | -105.39910 | 36980 ft | 490 kts | 117° |
| 2026-05-07 19:07 | 31.57560 | -105.32250 | 36986 ft | 490 kts | 117° |
| 2026-05-07 19:08 | 31.55606 | -105.24595 | 36984 ft | 491 kts | 117° |
| 2026-05-07 19:08 | 31.53640 | -105.16919 | 36993 ft | 492 kts | 117° |
| 2026-05-07 19:09 | 31.51667 | -105.09231 | 36993 ft | 492 kts | 117° |
| 2026-05-07 19:09 | 31.49693 | -105.01553 | 37007 ft | 492 kts | 117° |
| 2026-05-07 19:10 | 31.47712 | -104.93874 | 37003 ft | 492 kts | 117° |
| 2026-05-07 19:10 | 31.45726 | -104.86200 | 37016 ft | 493 kts | 117° |
| 2026-05-07 19:11 | 31.43731 | -104.78511 | 37018 ft | 493 kts | 117° |
| 2026-05-07 19:11 | 31.41732 | -104.70828 | 37015 ft | 493 kts | 117° |
| 2026-05-07 19:12 | 31.39729 | -104.63150 | 37027 ft | 493 kts | 117° |
| 2026-05-07 19:12 | 31.37723 | -104.55479 | 37028 ft | 493 kts | 117° |
| 2026-05-07 19:13 | 31.35722 | -104.47851 | 37037 ft | 493 kts | 118° |
| 2026-05-07 19:13 | 31.33706 | -104.40185 | 37034 ft | 493 kts | 118° |
| 2026-05-07 19:14 | 31.31686 | -104.32524 | 37043 ft | 493 kts | 118° |
| 2026-05-07 19:14 | 31.29661 | -104.24863 | 37045 ft | 493 kts | 118° |
| 2026-05-07 19:15 | 31.27631 | -104.17208 | 37017 ft | 493 kts | 118° |
| 2026-05-07 19:15 | 31.25592 | -104.09542 | 37044 ft | 494 kts | 118° |
| 2026-05-07 19:16 | 31.23548 | -104.01873 | 37049 ft | 494 kts | 118° |
| 2026-05-07 19:16 | 31.21497 | -103.94195 | 37047 ft | 494 kts | 118° |
| 2026-05-07 19:17 | 31.19446 | -103.86538 | 37054 ft | 494 kts | 118° |
| 2026-05-07 19:17 | 31.17389 | -103.78882 | 37065 ft | 494 kts | 118° |
| 2026-05-07 19:18 | 31.15326 | -103.71224 | 37068 ft | 494 kts | 118° |
| 2026-05-07 19:18 | 31.13259 | -103.63571 | 37073 ft | 494 kts | 118° |
| 2026-05-07 19:19 | 31.11189 | -103.55925 | 37070 ft | 494 kts | 118° |
| 2026-05-07 19:19 | 31.09113 | -103.48277 | 37048 ft | 494 kts | 118° |
| 2026-05-07 19:20 | 31.07046 | -103.40685 | 37046 ft | 495 kts | 118° |
| 2026-05-07 19:20 | 31.04946 | -103.32990 | 37035 ft | 494 kts | 118° |
| 2026-05-07 19:21 | 31.02870 | -103.25404 | 37034 ft | 494 kts | 118° |
| 2026-05-07 19:21 | 31.00779 | -103.17778 | 37032 ft | 494 kts | 118° |
| 2026-05-07 19:22 | 30.98678 | -103.10141 | 37033 ft | 495 kts | 118° |
| 2026-05-07 19:22 | 30.96570 | -103.02498 | 37038 ft | 495 kts | 118° |
| 2026-05-07 19:23 | 30.94514 | -102.94830 | 37039 ft | 498 kts | 116° |
| 2026-05-07 19:23 | 30.92915 | -102.88389 | 37140 ft | 498 kts | 116° |
| 2026-05-07 19:24 | 30.90991 | -102.80636 | 37135 ft | 498 kts | 116° |
| 2026-05-07 19:24 | 30.89057 | -102.72886 | 37102 ft | 499 kts | 116° |
| 2026-05-07 19:25 | 30.87114 | -102.65130 | 37091 ft | 500 kts | 116° |
| 2026-05-07 19:25 | 30.85163 | -102.57364 | 37075 ft | 500 kts | 116° |
| 2026-05-07 19:26 | 30.83207 | -102.49601 | 37059 ft | 500 kts | 116° |
| 2026-05-07 19:26 | 30.81246 | -102.41837 | 37060 ft | 500 kts | 116° |
| 2026-05-07 19:27 | 30.79280 | -102.34083 | 37064 ft | 500 kts | 116° |
| 2026-05-07 19:27 | 30.77322 | -102.26374 | 37083 ft | 500 kts | 116° |
| 2026-05-07 19:28 | 30.75347 | -102.18620 | 37086 ft | 500 kts | 116° |
| 2026-05-07 19:28 | 30.73367 | -102.10870 | 37075 ft | 500 kts | 116° |
| 2026-05-07 19:29 | 30.71381 | -102.03120 | 37085 ft | 500 kts | 116° |
| 2026-05-07 19:29 | 30.69392 | -101.95378 | 37090 ft | 501 kts | 116° |
| 2026-05-07 19:30 | 30.67394 | -101.87623 | 37094 ft | 501 kts | 116° |
| 2026-05-07 19:30 | 30.65393 | -101.79872 | 37096 ft | 501 kts | 116° |
| 2026-05-07 19:31 | 30.63387 | -101.72128 | 37101 ft | 501 kts | 116° |
| 2026-05-07 19:31 | 30.61375 | -101.64378 | 37099 ft | 501 kts | 116° |
| 2026-05-07 19:32 | 30.59355 | -101.56624 | 37098 ft | 502 kts | 116° |
| 2026-05-07 19:32 | 30.57329 | -101.48861 | 37103 ft | 503 kts | 116° |
| 2026-05-07 19:33 | 30.55296 | -101.41096 | 37100 ft | 503 kts | 116° |
| 2026-05-07 19:33 | 30.53259 | -101.33334 | 37101 ft | 503 kts | 116° |
| 2026-05-07 19:34 | 30.51217 | -101.25577 | 37099 ft | 503 kts | 115° |
| 2026-05-07 19:34 | 30.49169 | -101.17818 | 37129 ft | 503 kts | 115° |
| 2026-05-07 19:35 | 30.47116 | -101.10061 | 37118 ft | 504 kts | 115° |
| 2026-05-07 19:35 | 30.45048 | -101.02268 | 37109 ft | 507 kts | 115° |
| 2026-05-07 19:36 | 30.42973 | -100.94463 | 37131 ft | 507 kts | 115° |
| 2026-05-07 19:36 | 30.40904 | -100.86707 | 37139 ft | 507 kts | 115° |
| 2026-05-07 19:37 | 30.38819 | -100.78907 | 37141 ft | 507 kts | 115° |
| 2026-05-07 19:37 | 30.36727 | -100.71105 | 37150 ft | 507 kts | 115° |
| 2026-05-07 19:38 | 30.34632 | -100.63314 | 37145 ft | 507 kts | 115° |
| 2026-05-07 19:38 | 30.32533 | -100.55528 | 37113 ft | 507 kts | 115° |
| 2026-05-07 19:39 | 30.30426 | -100.47732 | 36863 ft | 507 kts | 115° |
| 2026-05-07 19:39 | 30.29362 | -100.43810 | 35850 ft | 516 kts | 114° |
| 2026-05-07 19:39 | 30.28269 | -100.39802 | 34818 ft | 528 kts | 114° |
| 2026-05-07 19:40 | 30.27169 | -100.35749 | 34254 ft | 526 kts | 113° |
| 2026-05-07 19:40 | 30.26086 | -100.31743 | 33914 ft | 518 kts | 113° |
| 2026-05-07 19:40 | 30.25010 | -100.27777 | 33316 ft | 515 kts | 113° |
| 2026-05-07 19:40 | 30.23938 | -100.23837 | 32777 ft | 511 kts | 114° |
| 2026-05-07 19:41 | 30.22875 | -100.19939 | 32314 ft | 506 kts | 114° |
| 2026-05-07 19:41 | 30.21814 | -100.16059 | 31580 ft | 508 kts | 114° |
| 2026-05-07 19:41 | 30.20753 | -100.12183 | 31148 ft | 502 kts | 114° |
| 2026-05-07 19:41 | 30.19705 | -100.08353 | 30695 ft | 498 kts | 114° |
| 2026-05-07 19:42 | 30.18663 | -100.04554 | 30227 ft | 493 kts | 114° |
| 2026-05-07 19:42 | 30.17620 | -100.00801 | 29713 ft | 488 kts | 115° |
| 2026-05-07 19:42 | 30.16494 | -99.97128 | 29169 ft | 483 kts | 116° |
| 2026-05-07 19:42 | 30.15342 | -99.93502 | 28651 ft | 478 kts | 117° |
| 2026-05-07 19:43 | 30.14197 | -99.89913 | 28138 ft | 474 kts | 117° |
| 2026-05-07 19:43 | 30.13062 | -99.86355 | 27628 ft | 471 kts | 117° |
| 2026-05-07 19:43 | 30.11936 | -99.82822 | 27147 ft | 466 kts | 116° |
| 2026-05-07 19:43 | 30.10814 | -99.79305 | 26388 ft | 469 kts | 116° |
| 2026-05-07 19:44 | 30.09670 | -99.75734 | 25416 ft | 479 kts | 116° |
| 2026-05-07 19:44 | 30.08507 | -99.72100 | 24482 ft | 486 kts | 116° |
| 2026-05-07 19:44 | 30.07331 | -99.68418 | 23676 ft | 490 kts | 116° |
| 2026-05-07 19:44 | 30.06156 | -99.64735 | 22929 ft | 488 kts | 115° |
| 2026-05-07 19:45 | 30.04980 | -99.61056 | 21875 ft | 491 kts | 115° |
| 2026-05-07 19:45 | 30.03791 | -99.57345 | 20915 ft | 492 kts | 114° |
| 2026-05-07 19:45 | 30.02619 | -99.53681 | 20497 ft | 480 kts | 114° |
| 2026-05-07 19:45 | 30.01476 | -99.50110 | 19902 ft | 473 kts | 114° |
| 2026-05-07 19:46 | 30.00332 | -99.46548 | 19145 ft | 472 kts | 113° |
| 2026-05-07 19:46 | 29.99199 | -99.43028 | 18600 ft | 464 kts | 113° |
| 2026-05-07 19:46 | 29.98100 | -99.39613 | 18064 ft | 457 kts | 113° |
| 2026-05-07 19:46 | 29.97003 | -99.36203 | 17482 ft | 449 kts | 113° |
| 2026-05-07 19:47 | 29.95926 | -99.32864 | 16999 ft | 440 kts | 113° |
| 2026-05-07 19:47 | 29.94868 | -99.29585 | 16515 ft | 431 kts | 113° |
| 2026-05-07 19:47 | 29.93837 | -99.26390 | 16178 ft | 417 kts | 114° |
| 2026-05-07 19:47 | 29.92846 | -99.23318 | 15690 ft | 403 kts | 114° |
| 2026-05-07 19:48 | 29.91846 | -99.20365 | 15287 ft | 387 kts | 116° |
| 2026-05-07 19:48 | 29.90828 | -99.17552 | 14812 ft | 375 kts | 117° |
| 2026-05-07 19:48 | 29.89833 | -99.14843 | 14528 ft | 358 kts | 117° |
| 2026-05-07 19:48 | 29.88882 | -99.12256 | 14261 ft | 344 kts | 118° |
| 2026-05-07 19:49 | 29.87962 | -99.09754 | 13823 ft | 336 kts | 118° |
| 2026-05-07 19:49 | 29.87057 | -99.07297 | 13258 ft | 332 kts | 118° |
| 2026-05-07 19:49 | 29.86159 | -99.04865 | 12846 ft | 330 kts | 118° |
| 2026-05-07 19:49 | 29.85242 | -99.02392 | 12512 ft | 339 kts | 118° |
| 2026-05-07 19:50 | 29.84317 | -98.99886 | 12161 ft | 339 kts | 117° |
| 2026-05-07 19:50 | 29.83318 | -98.97456 | 11810 ft | 332 kts | 127° |
| 2026-05-07 19:50 | 29.81954 | -98.95364 | 11478 ft | 324 kts | 135° |
| 2026-05-07 19:50 | 29.80481 | -98.93424 | 11140 ft | 320 kts | 136° |
| 2026-05-07 19:51 | 29.79015 | -98.91542 | 10927 ft | 309 kts | 136° |
| 2026-05-07 19:51 | 29.77609 | -98.89735 | 10661 ft | 300 kts | 136° |
| 2026-05-07 19:51 | 29.76217 | -98.87947 | 10353 ft | 299 kts | 135° |
| 2026-05-07 19:51 | 29.74833 | -98.86167 | 10005 ft | 298 kts | 135° |
| 2026-05-07 19:52 | 29.73453 | -98.84389 | 9565 ft | 297 kts | 135° |
| 2026-05-07 19:52 | 29.72090 | -98.82630 | 9247 ft | 292 kts | 135° |
| 2026-05-07 19:52 | 29.70756 | -98.80907 | 9026 ft | 283 kts | 135° |
| 2026-05-07 19:52 | 29.69475 | -98.79261 | 8794 ft | 270 kts | 136° |
| 2026-05-07 19:53 | 29.68188 | -98.77712 | 8531 ft | 268 kts | 138° |
| 2026-05-07 19:53 | 29.66874 | -98.76179 | 8231 ft | 270 kts | 137° |
| 2026-05-07 19:53 | 29.65592 | -98.74621 | 7944 ft | 266 kts | 135° |
| 2026-05-07 19:53 | 29.64311 | -98.73153 | 7668 ft | 260 kts | 144° |
| 2026-05-07 19:54 | 29.62784 | -98.72160 | 7405 ft | 247 kts | 159° |
| 2026-05-07 19:54 | 29.61201 | -98.71486 | 7058 ft | 242 kts | 162° |
| 2026-05-07 19:54 | 29.59602 | -98.70868 | 6716 ft | 238 kts | 162° |
| 2026-05-07 19:54 | 29.58045 | -98.70271 | 6511 ft | 235 kts | 161° |
| 2026-05-07 19:55 | 29.56490 | -98.69672 | 6375 ft | 236 kts | 161° |
| 2026-05-07 19:55 | 29.54938 | -98.69071 | 6166 ft | 234 kts | 161° |
| 2026-05-07 19:55 | 29.53403 | -98.68475 | 6007 ft | 231 kts | 161° |
| 2026-05-07 19:55 | 29.51896 | -98.67888 | 5969 ft | 228 kts | 161° |
| 2026-05-07 19:56 | 29.50395 | -98.67303 | 5962 ft | 228 kts | 161° |
| 2026-05-07 19:56 | 29.48893 | -98.66718 | 5966 ft | 228 kts | 161° |
| 2026-05-07 19:56 | 29.47393 | -98.66164 | 5950 ft | 226 kts | 167° |
| 2026-05-07 19:56 | 29.45832 | -98.66088 | 5949 ft | 227 kts | 192° |
| 2026-05-07 19:57 | 29.44416 | -98.66863 | 5954 ft | 228 kts | 215° |
| 2026-05-07 19:57 | 29.43177 | -98.68011 | 5952 ft | 229 kts | 219° |
| 2026-05-07 19:57 | 29.41978 | -98.69212 | 5951 ft | 228 kts | 219° |
| 2026-05-07 19:57 | 29.40825 | -98.70363 | 5975 ft | 210 kts | 219° |
| 2026-05-07 19:58 | 29.39743 | -98.71434 | 5938 ft | 203 kts | 219° |
| 2026-05-07 19:58 | 29.38666 | -98.72490 | 5634 ft | 203 kts | 218° |
| 2026-05-07 19:58 | 29.37601 | -98.73530 | 5292 ft | 201 kts | 217° |
| 2026-05-07 19:58 | 29.36480 | -98.74458 | 5025 ft | 197 kts | 203° |
| 2026-05-07 19:59 | 29.35169 | -98.74881 | 4984 ft | 196 kts | 180° |
| 2026-05-07 19:59 | 29.33861 | -98.74530 | 4976 ft | 195 kts | 148° |
| 2026-05-07 19:59 | 29.32967 | -98.73392 | 4978 ft | 196 kts | 115° |
| 2026-05-07 19:59 | 29.32742 | -98.71852 | 4981 ft | 199 kts | 89° |
| 2026-05-07 20:00 | 29.32997 | -98.70291 | 4949 ft | 200 kts | 75° |
| 2026-05-07 20:00 | 29.33485 | -98.68797 | 4946 ft | 201 kts | 69° |
| 2026-05-07 20:00 | 29.34060 | -98.67339 | 4946 ft | 201 kts | 67° |
| 2026-05-07 20:00 | 29.34648 | -98.65886 | 4952 ft | 197 kts | 68° |
| 2026-05-07 20:01 | 29.35184 | -98.64538 | 4947 ft | 175 kts | 64° |
| 2026-05-07 20:01 | 29.35833 | -98.63450 | 4943 ft | 160 kts | 51° |
| 2026-05-07 20:01 | 29.36614 | -98.62553 | 4817 ft | 159 kts | 44° |
| 2026-05-07 20:01 | 29.37439 | -98.61722 | 4591 ft | 157 kts | 44° |
| 2026-05-07 20:02 | 29.38260 | -98.60908 | 4347 ft | 154 kts | 44° |
| 2026-05-07 20:02 | 29.39067 | -98.60110 | 4126 ft | 152 kts | 44° |
| 2026-05-07 20:02 | 29.39863 | -98.59323 | 3922 ft | 150 kts | 46° |
| 2026-05-07 20:02 | 29.40640 | -98.58555 | 3742 ft | 146 kts | 44° |
| 2026-05-07 20:03 | 29.41376 | -98.57829 | 3560 ft | 134 kts | 45° |
| 2026-05-07 20:03 | 29.42068 | -98.57143 | 3386 ft | 131 kts | 46° |
| 2026-05-07 20:03 | 29.42761 | -98.56457 | 3216 ft | 132 kts | 44° |
| 2026-05-07 20:03 | 29.43455 | -98.55771 | 3038 ft | 132 kts | 45° |
| 2026-05-07 20:04 | 29.44140 | -98.55093 | 2872 ft | 131 kts | 44° |
| 2026-05-07 20:04 | 29.44831 | -98.54411 | 2709 ft | 131 kts | 45° |
| 2026-05-07 20:04 | 29.45518 | -98.53731 | 2531 ft | 130 kts | 43° |
| 2026-05-07 20:04 | 29.46202 | -98.53055 | 2363 ft | 130 kts | 43° |
| 2026-05-07 20:05 | 29.46887 | -98.52378 | 2185 ft | 130 kts | 43° |
| 2026-05-07 20:05 | 29.47571 | -98.51700 | 2019 ft | 130 kts | 42° |
| 2026-05-07 20:05 | 29.48254 | -98.51024 | 1842 ft | 129 kts | 40° |
| 2026-05-07 20:05 | 29.48935 | -98.50351 | 1667 ft | 129 kts | 40° |
| 2026-05-07 20:06 | 29.49613 | -98.49683 | 1499 ft | 129 kts | 39° |
| 2026-05-07 20:06 | 29.50292 | -98.49013 | 1341 ft | 128 kts | 39° |
| 2026-05-07 20:06 | 29.50973 | -98.48363 | 1139 ft | 127 kts | 36° |
| 2026-05-07 20:06 | 29.51646 | -98.47709 | 999 ft | 128 kts | 39° |
| 2026-05-07 20:07 | 29.52301 | -98.47030 | 842 ft | 125 kts | 40° |
| 2026-05-07 20:07 | 29.52906 | -98.46409 | 783 ft | 97 kts | 40° |
| 2026-05-07 20:07 | 29.53283 | -98.46044 | 793 ft | 47 kts | 41° |
| 2026-05-07 20:07 | 29.53421 | -98.45969 | 795 ft | 12 kts | 327° |
| 2026-05-07 20:08 | 29.53456 | -98.46019 | 794 ft | 0 kts | 282° |
| 2026-05-07 20:09 | 29.53457 | -98.46029 | 794 ft | 4 kts | 278° |
| 2026-05-07 20:10 | 29.53394 | -98.46123 | 792 ft | 15 kts | 220° |
| 2026-05-07 20:10 | 29.53309 | -98.46207 | 790 ft | 17 kts | 221° |
| 2026-05-07 20:10 | 29.53213 | -98.46303 | 788 ft | 19 kts | 220° |
| 2026-05-07 20:10 | 29.53116 | -98.46397 | 788 ft | 18 kts | 220° |
| 2026-05-07 20:11 | 29.53015 | -98.46497 | 781 ft | 20 kts | 220° |
| 2026-05-07 20:11 | 29.52920 | -98.46591 | 786 ft | 17 kts | 221° |
| 2026-05-07 20:11 | 29.52833 | -98.46678 | 787 ft | 17 kts | 219° |
| 2026-05-07 20:11 | 29.52771 | -98.46736 | 786 ft | 17 kts | 219° |
| 2026-05-07 20:12 | 29.52713 | -98.46837 | 787 ft | 9 kts | 291° |
| 2026-05-07 20:12 | 29.52751 | -98.46893 | 787 ft | 10 kts | 311° |
| 2026-05-07 20:12 | 29.52783 | -98.46933 | 787 ft | 11 kts | 312° |
| 2026-05-07 20:12 | 29.52842 | -98.47020 | 789 ft | 10 kts | 285° |
| 2026-05-07 20:13 | 29.52834 | -98.47067 | 790 ft | 9 kts | 243° |
| 2026-05-07 20:13 | 29.52792 | -98.47116 | 789 ft | 9 kts | 220° |
| 2026-05-07 20:13 | 29.52792 | -98.47164 | 790 ft | 4 kts | 311° |
| 2026-05-07 20:13 | 29.52806 | -98.47175 | 790 ft | 0 kts | 327° |
| 2026-05-07 20:14 | 29.52812 | -98.47179 | 790 ft | 0 kts | 327° |
| 2026-05-07 20:14 | 29.52813 | -98.47180 | 790 ft | 0 kts | 327° |